createdAt,value
2018-07-28T00:00:21.431Z,0.00
2018-07-28T00:01:21.398Z,0.00
2018-07-28T00:02:21.388Z,0.00
2018-07-28T00:03:21.398Z,0.00
2018-07-28T00:04:21.390Z,0.00
2018-07-28T00:05:21.388Z,0.00
2018-07-28T00:06:21.390Z,0.00
2018-07-28T00:07:21.395Z,0.00
2018-07-28T00:08:21.395Z,0.00
2018-07-28T00:09:21.395Z,0.00
2018-07-28T00:10:21.405Z,0.00
2018-07-28T00:11:21.399Z,0.00
2018-07-28T00:12:21.395Z,0.00
2018-07-28T00:13:21.424Z,0.00
2018-07-28T00:14:21.393Z,0.00
2018-07-28T00:15:21.463Z,0.00
2018-07-28T00:16:21.403Z,0.00
2018-07-28T00:17:21.408Z,0.00
2018-07-28T00:18:21.400Z,0.00
2018-07-28T00:19:21.409Z,0.00
2018-07-28T00:20:21.401Z,0.00
2018-07-28T00:21:21.404Z,0.00
2018-07-28T00:22:21.409Z,0.00
2018-07-28T00:23:21.408Z,0.00
2018-07-28T00:24:21.406Z,0.00
2018-07-28T00:25:21.442Z,0.00
2018-07-28T00:26:21.419Z,0.00
2018-07-28T00:27:21.409Z,0.00
2018-07-28T00:28:21.409Z,0.00
2018-07-28T00:29:21.416Z,0.00
2018-07-28T00:30:21.420Z,0.00
2018-07-28T00:31:21.411Z,0.00
2018-07-28T00:32:21.409Z,0.00
2018-07-28T00:33:21.435Z,0.00
2018-07-28T00:34:21.414Z,0.00
2018-07-28T00:35:21.438Z,0.00
2018-07-28T00:36:21.417Z,0.00
2018-07-28T00:37:21.420Z,0.00
2018-07-28T00:38:21.421Z,0.00
2018-07-28T00:39:21.415Z,0.00
2018-07-28T00:40:21.417Z,0.00
2018-07-28T00:41:21.418Z,0.00
2018-07-28T00:42:21.422Z,0.00
2018-07-28T00:43:21.418Z,0.00
2018-07-28T00:44:21.423Z,0.00
2018-07-28T00:45:21.419Z,0.00
2018-07-28T00:46:21.423Z,0.00
2018-07-28T00:47:21.423Z,0.00
2018-07-28T00:48:23.289Z,0.00
2018-07-28T00:49:21.422Z,0.00
2018-07-28T00:50:21.428Z,0.00
2018-07-28T00:51:21.446Z,0.00
2018-07-28T00:52:21.438Z,0.00
2018-07-28T00:53:21.428Z,0.00
2018-07-28T00:54:21.431Z,0.00
2018-07-28T00:55:21.427Z,0.00
2018-07-28T00:56:21.429Z,0.00
2018-07-28T00:57:21.425Z,0.00
2018-07-28T00:58:21.434Z,0.00
2018-07-28T00:59:21.430Z,0.00
2018-07-28T01:00:21.431Z,0.00
2018-07-28T01:01:21.445Z,0.00
2018-07-28T01:02:21.432Z,0.00
2018-07-28T01:03:21.436Z,0.00
2018-07-28T01:04:21.430Z,0.00
2018-07-28T01:05:21.435Z,0.00
2018-07-28T01:06:21.442Z,0.00
2018-07-28T01:07:21.438Z,0.00
2018-07-28T01:08:21.455Z,0.00
2018-07-28T01:09:21.435Z,0.00
2018-07-28T01:10:21.434Z,0.00
2018-07-28T01:11:21.448Z,0.00
2018-07-28T01:12:21.454Z,0.00
2018-07-28T01:13:21.456Z,0.00
2018-07-28T01:14:21.549Z,0.00
2018-07-28T01:15:21.443Z,0.00
2018-07-28T01:16:21.446Z,0.00
2018-07-28T01:17:21.438Z,0.00
2018-07-28T01:18:21.442Z,0.00
2018-07-28T01:19:21.438Z,0.00
2018-07-28T01:20:21.440Z,0.00
2018-07-28T01:21:21.439Z,0.00
2018-07-28T01:22:21.436Z,0.00
2018-07-28T01:23:21.462Z,0.00
2018-07-28T01:24:21.439Z,0.00
2018-07-28T01:25:21.458Z,0.00
2018-07-28T01:26:21.445Z,0.00
2018-07-28T01:27:21.462Z,0.00
2018-07-28T01:28:21.449Z,0.00
2018-07-28T01:29:21.440Z,0.00
2018-07-28T01:30:21.443Z,0.00
2018-07-28T01:31:21.444Z,0.00
2018-07-28T01:32:21.448Z,0.00
2018-07-28T01:33:21.448Z,0.00
2018-07-28T01:34:21.444Z,0.00
2018-07-28T01:35:21.445Z,0.00
2018-07-28T01:36:21.444Z,0.00
2018-07-28T01:37:21.442Z,0.00
2018-07-28T01:38:21.444Z,0.00
2018-07-28T01:39:21.443Z,0.00
2018-07-28T01:40:21.448Z,0.00
2018-07-28T01:41:21.454Z,0.00
2018-07-28T01:42:21.453Z,0.00
2018-07-28T01:43:21.447Z,0.00
2018-07-28T01:44:21.446Z,0.00
2018-07-28T01:45:21.453Z,0.00
2018-07-28T01:46:21.448Z,0.00
2018-07-28T01:47:21.450Z,0.00
2018-07-28T01:48:36.338Z,0.00
2018-07-28T01:49:21.481Z,0.00
2018-07-28T01:50:21.450Z,0.00
2018-07-28T01:51:21.446Z,0.00
2018-07-28T01:52:21.447Z,0.00
2018-07-28T01:53:21.445Z,0.00
2018-07-28T01:54:21.449Z,0.00
2018-07-28T01:55:21.464Z,0.00
2018-07-28T01:56:21.446Z,0.00
2018-07-28T01:57:21.450Z,0.00
2018-07-28T01:58:21.446Z,0.00
2018-07-28T01:59:21.450Z,0.00
2018-07-28T02:00:21.448Z,0.00
2018-07-28T02:01:21.452Z,0.00
2018-07-28T02:02:21.449Z,0.00
2018-07-28T02:03:21.451Z,0.00
2018-07-28T02:04:21.450Z,0.00
2018-07-28T02:05:21.450Z,0.00
2018-07-28T02:06:21.448Z,0.00
2018-07-28T02:07:21.450Z,0.00
2018-07-28T02:08:21.470Z,0.00
2018-07-28T02:09:21.453Z,0.00
2018-07-28T02:10:21.454Z,0.00
2018-07-28T02:11:21.446Z,0.00
2018-07-28T02:12:21.451Z,0.00
2018-07-28T02:13:21.451Z,0.00
2018-07-28T02:14:21.451Z,0.00
2018-07-28T02:15:21.454Z,0.00
2018-07-28T02:16:21.456Z,0.00
2018-07-28T02:17:21.451Z,0.00
2018-07-28T02:18:21.449Z,0.00
2018-07-28T02:19:21.459Z,0.00
2018-07-28T02:20:21.451Z,0.00
2018-07-28T02:21:21.455Z,0.00
2018-07-28T02:22:21.452Z,0.00
2018-07-28T02:23:21.448Z,0.00
2018-07-28T02:24:21.450Z,0.00
2018-07-28T02:25:21.452Z,0.00
2018-07-28T02:26:21.456Z,0.00
2018-07-28T02:27:21.458Z,0.00
2018-07-28T02:28:21.455Z,0.00
2018-07-28T02:29:21.455Z,0.00
2018-07-28T02:30:21.455Z,0.00
2018-07-28T02:31:21.452Z,0.00
2018-07-28T02:32:21.454Z,0.00
2018-07-28T02:33:21.451Z,0.00
2018-07-28T02:34:21.471Z,0.00
2018-07-28T02:35:21.455Z,0.00
2018-07-28T02:36:21.456Z,0.00
2018-07-28T02:37:21.479Z,0.00
2018-07-28T02:38:21.459Z,0.00
2018-07-28T02:39:21.485Z,0.00
2018-07-28T02:40:21.456Z,0.00
2018-07-28T02:41:21.453Z,0.00
2018-07-28T02:42:21.470Z,0.00
2018-07-28T02:43:21.456Z,0.00
2018-07-28T02:44:21.451Z,0.00
2018-07-28T02:45:21.453Z,0.00
2018-07-28T02:46:21.453Z,0.00
2018-07-28T02:47:21.457Z,0.00
2018-07-28T02:48:21.459Z,0.00
2018-07-28T02:49:21.454Z,0.00
2018-07-28T02:50:21.461Z,0.00
2018-07-28T02:51:21.485Z,0.00
2018-07-28T02:52:21.451Z,0.00
2018-07-28T02:53:21.455Z,0.00
2018-07-28T02:54:21.455Z,0.00
2018-07-28T02:55:21.451Z,0.00
2018-07-28T02:56:28.382Z,0.00
2018-07-28T02:57:21.492Z,0.00
2018-07-28T02:58:21.457Z,0.00
2018-07-28T02:59:21.453Z,0.00
2018-07-28T03:00:21.469Z,0.00
2018-07-28T03:01:21.455Z,0.00
2018-07-28T03:02:21.453Z,0.00
2018-07-28T03:03:21.452Z,0.00
2018-07-28T03:04:21.456Z,0.00
2018-07-28T03:05:21.456Z,0.00
2018-07-28T03:06:21.460Z,0.00
2018-07-28T03:07:21.457Z,0.00
2018-07-28T03:08:21.456Z,0.00
2018-07-28T03:09:21.464Z,0.00
2018-07-28T03:10:21.449Z,0.00
2018-07-28T03:11:21.456Z,0.00
2018-07-28T03:12:21.461Z,0.00
2018-07-28T03:13:21.461Z,0.00
2018-07-28T03:14:21.450Z,0.00
2018-07-28T03:15:21.457Z,0.00
2018-07-28T03:16:21.450Z,0.00
2018-07-28T03:17:21.451Z,0.00
2018-07-28T03:18:21.450Z,0.00
2018-07-28T03:19:21.453Z,0.00
2018-07-28T03:20:21.453Z,0.00
2018-07-28T03:21:21.454Z,0.00
2018-07-28T03:22:21.449Z,0.00
2018-07-28T03:23:21.452Z,0.00
2018-07-28T03:24:21.446Z,0.00
2018-07-28T03:25:21.447Z,0.00
2018-07-28T03:26:21.463Z,0.00
2018-07-28T03:27:21.447Z,0.00
2018-07-28T03:28:21.446Z,0.00
2018-07-28T03:29:21.447Z,0.00
2018-07-28T03:30:21.451Z,0.00
2018-07-28T03:31:21.454Z,5.63
2018-07-28T03:32:21.445Z,5.63
2018-07-28T03:33:21.450Z,5.63
2018-07-28T03:34:21.466Z,5.63
2018-07-28T03:35:21.453Z,5.63
2018-07-28T03:36:21.446Z,5.63
2018-07-28T03:37:21.470Z,5.63
2018-07-28T03:38:21.445Z,11.25
2018-07-28T03:39:21.469Z,11.25
2018-07-28T03:40:21.444Z,11.25
2018-07-28T03:41:21.446Z,11.25
2018-07-28T03:42:21.460Z,11.25
2018-07-28T03:43:21.441Z,16.88
2018-07-28T03:44:21.443Z,16.88
2018-07-28T03:45:21.461Z,16.88
2018-07-28T03:46:21.442Z,16.88
2018-07-28T03:47:21.439Z,16.88
2018-07-28T03:48:21.442Z,22.50
2018-07-28T03:49:21.481Z,22.50
2018-07-28T03:50:21.438Z,22.50
2018-07-28T03:51:21.439Z,28.13
2018-07-28T03:52:21.458Z,28.13
2018-07-28T03:53:21.441Z,28.13
2018-07-28T03:54:21.439Z,28.13
2018-07-28T03:55:21.446Z,33.75
2018-07-28T03:56:21.443Z,33.75
2018-07-28T03:57:21.441Z,33.75
2018-07-28T03:58:21.437Z,39.38
2018-07-28T03:59:21.438Z,39.38
2018-07-28T04:00:21.438Z,39.38
2018-07-28T04:01:21.433Z,45.00
2018-07-28T04:02:21.440Z,45.00
2018-07-28T04:03:21.436Z,45.00
2018-07-28T04:04:21.436Z,50.63
2018-07-28T04:05:21.460Z,50.63
2018-07-28T04:06:21.462Z,50.63
2018-07-28T04:07:21.441Z,50.63
2018-07-28T04:08:21.434Z,56.25
2018-07-28T04:09:21.433Z,56.25
2018-07-28T04:10:21.433Z,56.25
2018-07-28T04:11:21.441Z,61.88
2018-07-28T04:12:21.434Z,61.88
2018-07-28T04:13:21.440Z,61.88
2018-07-28T04:14:21.488Z,67.50
2018-07-28T04:15:21.433Z,67.50
2018-07-28T04:16:21.461Z,67.50
2018-07-28T04:17:21.436Z,73.13
2018-07-28T04:18:21.429Z,73.13
2018-07-28T04:19:21.432Z,73.13
2018-07-28T04:20:21.434Z,78.75
2018-07-28T04:21:21.432Z,78.75
2018-07-28T04:22:21.449Z,84.38
2018-07-28T04:23:21.444Z,84.38
2018-07-28T04:24:21.434Z,84.38
2018-07-28T04:25:21.440Z,90.00
2018-07-28T04:26:21.429Z,90.00
2018-07-28T04:27:21.431Z,95.63
2018-07-28T04:28:21.431Z,95.63
2018-07-28T04:29:21.477Z,101.25
2018-07-28T04:30:21.445Z,101.25
2018-07-28T04:31:21.426Z,106.88
2018-07-28T04:32:21.430Z,106.88
2018-07-28T04:33:21.426Z,112.50
2018-07-28T04:34:21.424Z,112.50
2018-07-28T04:35:21.424Z,118.13
2018-07-28T04:36:21.448Z,118.13
2018-07-28T04:37:21.427Z,123.75
2018-07-28T04:38:21.424Z,123.75
2018-07-28T04:39:21.430Z,129.38
2018-07-28T04:40:21.421Z,129.38
2018-07-28T04:41:21.421Z,135.00
2018-07-28T04:42:21.423Z,135.00
2018-07-28T04:43:21.427Z,135.00
2018-07-28T04:44:21.426Z,135.00
2018-07-28T04:45:21.423Z,135.00
2018-07-28T04:46:21.424Z,135.00
2018-07-28T04:47:21.420Z,140.63
2018-07-28T04:48:21.421Z,140.63
2018-07-28T04:49:21.426Z,146.25
2018-07-28T04:50:21.441Z,157.50
2018-07-28T04:51:21.418Z,163.13
2018-07-28T04:52:21.423Z,168.75
2018-07-28T04:53:21.445Z,174.38
2018-07-28T04:54:21.422Z,185.63
2018-07-28T04:55:21.421Z,196.88
2018-07-28T04:56:21.421Z,196.88
2018-07-28T04:57:21.417Z,191.25
2018-07-28T04:58:21.434Z,180.00
2018-07-28T04:59:21.418Z,174.38
2018-07-28T05:00:21.421Z,163.13
2018-07-28T05:01:21.422Z,157.50
2018-07-28T05:02:21.451Z,146.25
2018-07-28T05:03:21.419Z,146.25
2018-07-28T05:04:21.425Z,140.63
2018-07-28T05:05:21.416Z,140.63
2018-07-28T05:06:21.412Z,140.63
2018-07-28T05:07:21.442Z,146.25
2018-07-28T05:08:21.411Z,146.25
2018-07-28T05:09:21.441Z,151.88
2018-07-28T05:10:21.411Z,157.50
2018-07-28T05:11:21.417Z,157.50
2018-07-28T05:12:21.417Z,163.13
2018-07-28T05:13:21.416Z,163.13
2018-07-28T05:14:21.415Z,163.13
2018-07-28T05:15:21.420Z,157.50
2018-07-28T05:16:21.413Z,157.50
2018-07-28T05:17:21.412Z,157.50
2018-07-28T05:18:21.411Z,163.13
2018-07-28T05:19:21.412Z,163.13
2018-07-28T05:20:21.410Z,168.75
2018-07-28T05:21:21.415Z,168.75
2018-07-28T05:22:21.412Z,168.75
2018-07-28T05:23:21.415Z,168.75
2018-07-28T05:24:21.410Z,168.75
2018-07-28T05:25:21.413Z,174.38
2018-07-28T05:26:21.412Z,180.00
2018-07-28T05:27:21.412Z,185.63
2018-07-28T05:28:21.414Z,196.88
2018-07-28T05:29:21.413Z,208.13
2018-07-28T05:30:21.418Z,213.75
2018-07-28T05:31:21.406Z,213.75
2018-07-28T05:32:21.414Z,213.75
2018-07-28T05:33:21.408Z,213.75
2018-07-28T05:34:21.409Z,219.38
2018-07-28T05:35:21.408Z,230.63
2018-07-28T05:36:21.411Z,236.25
2018-07-28T05:37:21.405Z,253.13
2018-07-28T05:38:21.409Z,264.38
2018-07-28T05:39:21.411Z,281.25
2018-07-28T05:40:21.411Z,298.13
2018-07-28T05:41:21.407Z,315.00
2018-07-28T05:42:21.416Z,337.50
2018-07-28T05:43:21.411Z,427.50
2018-07-28T05:44:21.410Z,601.88
2018-07-28T05:45:21.409Z,905.63
2018-07-28T05:46:21.406Z,990.00
2018-07-28T05:47:21.409Z,630.00
2018-07-28T05:48:21.403Z,1046.25
2018-07-28T05:49:21.417Z,1603.13
2018-07-28T05:50:21.404Z,1597.50
2018-07-28T05:51:21.404Z,1507.50
2018-07-28T05:52:21.405Z,1473.75
2018-07-28T05:53:21.404Z,1603.13
2018-07-28T05:54:21.406Z,1749.38
2018-07-28T05:55:21.405Z,1738.13
2018-07-28T05:56:21.403Z,1816.88
2018-07-28T05:57:21.414Z,1884.38
2018-07-28T05:58:21.404Z,1884.38
2018-07-28T05:59:21.410Z,1923.75
2018-07-28T06:00:21.409Z,1946.25
2018-07-28T06:01:21.418Z,1980.00
2018-07-28T06:02:21.442Z,2019.38
2018-07-28T06:03:21.445Z,2137.50
2018-07-28T06:04:21.412Z,2188.13
2018-07-28T06:05:21.412Z,2058.75
2018-07-28T06:06:21.410Z,1963.13
2018-07-28T06:07:21.423Z,1940.63
2018-07-28T06:08:21.415Z,2025.00
2018-07-28T06:09:21.416Z,2154.38
2018-07-28T06:10:21.431Z,2176.88
2018-07-28T06:11:21.420Z,2283.75
2018-07-28T06:12:21.429Z,2278.13
2018-07-28T06:13:21.426Z,2171.25
2018-07-28T06:14:21.440Z,2221.88
2018-07-28T06:15:21.436Z,2300.63
2018-07-28T06:16:21.436Z,2328.75
2018-07-28T06:17:21.440Z,2356.88
2018-07-28T06:18:21.444Z,2413.13
2018-07-28T06:19:21.445Z,2565.00
2018-07-28T06:20:21.487Z,2683.13
2018-07-28T06:21:21.469Z,2587.50
2018-07-28T06:22:21.455Z,2655.00
2018-07-28T06:23:21.474Z,2790.00
2018-07-28T06:24:21.464Z,2070.00
2018-07-28T06:25:21.461Z,1333.13
2018-07-28T06:26:21.469Z,1265.63
2018-07-28T06:27:21.475Z,832.50
2018-07-28T06:28:21.486Z,753.75
2018-07-28T06:29:21.486Z,1518.75
2018-07-28T06:30:21.503Z,2430.00
2018-07-28T06:31:21.484Z,2621.25
2018-07-28T06:32:21.488Z,2148.75
2018-07-28T06:33:21.493Z,1417.50
2018-07-28T06:34:21.505Z,1282.50
2018-07-28T06:35:21.497Z,1237.50
2018-07-28T06:36:21.502Z,1220.63
2018-07-28T06:37:21.505Z,1226.25
2018-07-28T06:38:21.506Z,1226.25
2018-07-28T06:39:21.515Z,1215.00
2018-07-28T06:40:21.519Z,1226.25
2018-07-28T06:41:21.523Z,1237.50
2018-07-28T06:42:21.527Z,1260.00
2018-07-28T06:43:21.526Z,1276.88
2018-07-28T06:44:21.531Z,1310.63
2018-07-28T06:45:21.532Z,1434.38
2018-07-28T06:46:21.542Z,2334.38
2018-07-28T06:47:21.554Z,3211.88
2018-07-28T06:48:21.553Z,2930.63
2018-07-28T06:49:21.554Z,3262.50
2018-07-28T06:50:21.564Z,3515.63
2018-07-28T06:51:21.566Z,3656.25
2018-07-28T06:52:21.570Z,3611.25
2018-07-28T06:53:21.576Z,3515.63
2018-07-28T06:54:21.601Z,3498.75
2018-07-28T06:55:21.577Z,3498.75
2018-07-28T06:56:21.589Z,3436.88
2018-07-28T06:57:21.597Z,3712.50
2018-07-28T06:58:21.599Z,3898.13
2018-07-28T06:59:21.609Z,3836.25
2018-07-28T07:00:21.610Z,3931.88
2018-07-28T07:01:21.614Z,3937.50
2018-07-28T07:02:21.638Z,4027.50
2018-07-28T07:03:21.621Z,4050.00
2018-07-28T07:04:21.649Z,4106.25
2018-07-28T07:05:21.633Z,4027.50
2018-07-28T07:06:21.637Z,3712.50
2018-07-28T07:07:21.645Z,4061.25
2018-07-28T07:08:21.655Z,4635.00
2018-07-28T07:09:21.653Z,4601.25
2018-07-28T07:10:21.660Z,4601.25
2018-07-28T07:11:21.670Z,4831.88
2018-07-28T07:12:21.674Z,4646.25
2018-07-28T07:13:21.682Z,3026.25
2018-07-28T07:14:21.685Z,2002.50
2018-07-28T07:15:21.692Z,1890.00
2018-07-28T07:16:21.695Z,4471.88
2018-07-28T07:17:21.703Z,3211.88
2018-07-28T07:18:21.709Z,2818.13
2018-07-28T07:19:21.744Z,2160.00
2018-07-28T07:20:21.716Z,2610.00
2018-07-28T07:21:21.725Z,2795.63
2018-07-28T07:22:21.730Z,2244.38
2018-07-28T07:23:21.735Z,1839.38
2018-07-28T07:24:21.742Z,1625.63
2018-07-28T07:25:21.757Z,1451.25
2018-07-28T07:26:21.770Z,1254.38
2018-07-28T07:27:21.759Z,1164.38
2018-07-28T07:28:21.761Z,1293.75
2018-07-28T07:29:21.772Z,1068.75
2018-07-28T07:30:21.794Z,1080.00
2018-07-28T07:31:21.803Z,1288.13
2018-07-28T07:32:21.785Z,2761.88
2018-07-28T07:33:21.790Z,4713.75
2018-07-28T07:34:21.795Z,4775.63
2018-07-28T07:35:21.798Z,4831.88
2018-07-28T07:36:22.563Z,2008.13
2018-07-28T07:37:21.809Z,1451.25
2018-07-28T07:38:21.815Z,1265.63
2018-07-28T07:39:21.820Z,1501.88
2018-07-28T07:40:21.823Z,4055.63
2018-07-28T07:41:21.826Z,4972.50
2018-07-28T07:42:21.834Z,1890.00
2018-07-28T07:43:21.839Z,2739.38
2018-07-28T07:44:21.843Z,2019.38
2018-07-28T07:45:21.873Z,2559.38
2018-07-28T07:46:21.851Z,2671.88
2018-07-28T07:47:21.932Z,4820.63
2018-07-28T07:48:21.865Z,1642.50
2018-07-28T07:49:21.876Z,1670.63
2018-07-28T07:50:21.872Z,1625.63
2018-07-28T07:51:21.905Z,1614.38
2018-07-28T07:52:21.881Z,1755.00
2018-07-28T07:53:21.892Z,1951.88
2018-07-28T07:54:21.891Z,1777.50
2018-07-28T07:55:21.896Z,1755.00
2018-07-28T07:56:21.902Z,1856.25
2018-07-28T07:57:21.904Z,2008.13
2018-07-28T07:58:21.912Z,2520.00
2018-07-28T07:59:21.921Z,3785.63
2018-07-28T08:00:21.919Z,2536.88
2018-07-28T08:01:21.919Z,2351.25
2018-07-28T08:02:21.931Z,2131.88
2018-07-28T08:03:21.930Z,1980.00
2018-07-28T08:04:21.938Z,2131.88
2018-07-28T08:05:21.943Z,2148.75
2018-07-28T08:06:21.980Z,2345.63
2018-07-28T08:07:21.963Z,2300.63
2018-07-28T08:08:21.953Z,2047.50
2018-07-28T08:09:21.972Z,1828.13
2018-07-28T08:10:21.962Z,1631.25
2018-07-28T08:11:21.980Z,1501.88
2018-07-28T08:12:21.968Z,1501.88
2018-07-28T08:13:21.972Z,1693.13
2018-07-28T08:14:21.986Z,1417.50
2018-07-28T08:15:21.992Z,1299.38
2018-07-28T08:16:21.994Z,1271.25
2018-07-28T08:17:21.996Z,1231.88
2018-07-28T08:18:21.998Z,1243.13
2018-07-28T08:19:22.003Z,1293.75
2018-07-28T08:20:22.003Z,1350.00
2018-07-28T08:21:22.013Z,1406.25
2018-07-28T08:22:22.031Z,1361.25
2018-07-28T08:23:22.022Z,1299.38
2018-07-28T08:24:22.021Z,1265.63
2018-07-28T08:25:22.033Z,1237.50
2018-07-28T08:26:22.072Z,1215.00
2018-07-28T08:27:22.612Z,1175.63
2018-07-28T08:28:22.045Z,1119.38
2018-07-28T08:29:22.052Z,1046.25
2018-07-28T08:30:22.056Z,984.38
2018-07-28T08:31:22.115Z,905.63
2018-07-28T08:32:22.096Z,838.13
2018-07-28T08:33:22.062Z,787.50
2018-07-28T08:34:22.074Z,731.25
2018-07-28T08:35:22.065Z,680.63
2018-07-28T08:36:22.103Z,658.13
2018-07-28T08:37:22.075Z,630.00
2018-07-28T08:38:22.079Z,607.50
2018-07-28T08:39:22.083Z,596.25
2018-07-28T08:40:22.091Z,585.00
2018-07-28T08:41:22.124Z,562.50
2018-07-28T08:42:22.098Z,517.50
2018-07-28T08:43:22.108Z,478.13
2018-07-28T08:44:22.110Z,444.38
2018-07-28T08:45:22.150Z,399.38
2018-07-28T08:46:22.120Z,376.88
2018-07-28T08:47:22.110Z,360.00
2018-07-28T08:48:22.117Z,337.50
2018-07-28T08:49:22.196Z,331.88
2018-07-28T08:50:22.148Z,331.88
2018-07-28T08:51:22.142Z,343.13
2018-07-28T08:52:22.128Z,348.75
2018-07-28T08:53:22.168Z,348.75
2018-07-28T08:54:22.136Z,348.75
2018-07-28T08:55:22.188Z,354.38
2018-07-28T08:56:22.144Z,360.00
2018-07-28T08:57:22.151Z,360.00
2018-07-28T08:58:22.154Z,365.63
2018-07-28T08:59:22.161Z,365.63
2018-07-28T09:00:22.150Z,365.63
2018-07-28T09:01:22.156Z,365.63
2018-07-28T09:02:22.157Z,371.25
2018-07-28T09:03:22.156Z,376.88
2018-07-28T09:04:22.159Z,382.50
2018-07-28T09:05:22.164Z,388.13
2018-07-28T09:06:22.167Z,405.00
2018-07-28T09:07:22.173Z,421.88
2018-07-28T09:08:22.169Z,438.75
2018-07-28T09:09:22.176Z,466.88
2018-07-28T09:10:22.176Z,495.00
2018-07-28T09:11:22.192Z,528.75
2018-07-28T09:12:22.224Z,556.88
2018-07-28T09:13:22.188Z,585.00
2018-07-28T09:14:22.184Z,607.50
2018-07-28T09:15:22.182Z,641.25
2018-07-28T09:16:22.244Z,680.63
2018-07-28T09:17:22.192Z,720.00
2018-07-28T09:18:22.199Z,753.75
2018-07-28T09:19:22.204Z,770.63
2018-07-28T09:20:22.196Z,770.63
2018-07-28T09:21:22.203Z,770.63
2018-07-28T09:22:22.196Z,725.63
2018-07-28T09:23:22.242Z,663.75
2018-07-28T09:24:22.214Z,590.63
2018-07-28T09:25:22.204Z,523.13
2018-07-28T09:26:23.145Z,483.75
2018-07-28T09:27:22.206Z,478.13
2018-07-28T09:28:22.223Z,495.00
2018-07-28T09:29:22.211Z,523.13
2018-07-28T09:30:22.229Z,562.50
2018-07-28T09:31:22.216Z,596.25
2018-07-28T09:32:22.243Z,635.63
2018-07-28T09:33:22.236Z,691.88
2018-07-28T09:34:22.222Z,759.38
2018-07-28T09:35:22.223Z,815.63
2018-07-28T09:36:22.229Z,843.75
2018-07-28T09:37:22.227Z,860.63
2018-07-28T09:38:22.226Z,860.63
2018-07-28T09:39:22.229Z,838.13
2018-07-28T09:40:22.228Z,804.38
2018-07-28T09:41:22.232Z,748.13
2018-07-28T09:42:22.236Z,663.75
2018-07-28T09:43:22.236Z,556.88
2018-07-28T09:44:22.240Z,466.88
2018-07-28T09:45:22.239Z,399.38
2018-07-28T09:46:22.338Z,354.38
2018-07-28T09:47:22.243Z,320.63
2018-07-28T09:48:22.245Z,309.38
2018-07-28T09:49:22.254Z,309.38
2018-07-28T09:50:22.255Z,326.25
2018-07-28T09:51:22.256Z,343.13
2018-07-28T09:52:22.254Z,354.38
2018-07-28T09:53:22.257Z,354.38
2018-07-28T09:54:22.257Z,360.00
2018-07-28T09:55:22.260Z,360.00
2018-07-28T09:56:22.261Z,354.38
2018-07-28T09:57:22.267Z,354.38
2018-07-28T09:58:22.268Z,354.38
2018-07-28T09:59:22.271Z,360.00
2018-07-28T10:00:22.269Z,360.00
2018-07-28T10:01:22.273Z,371.25
2018-07-28T10:02:22.275Z,376.88
2018-07-28T10:03:22.278Z,388.13
2018-07-28T10:04:22.280Z,399.38
2018-07-28T10:05:22.307Z,388.13
2018-07-28T10:06:22.284Z,382.50
2018-07-28T10:07:22.282Z,365.63
2018-07-28T10:08:22.293Z,348.75
2018-07-28T10:09:22.285Z,343.13
2018-07-28T10:10:22.288Z,343.13
2018-07-28T10:11:22.294Z,337.50
2018-07-28T10:12:22.293Z,331.88
2018-07-28T10:13:22.294Z,326.25
2018-07-28T10:14:22.292Z,320.63
2018-07-28T10:15:22.291Z,320.63
2018-07-28T10:16:22.355Z,320.63
2018-07-28T10:17:22.299Z,320.63
2018-07-28T10:18:22.296Z,320.63
2018-07-28T10:19:22.299Z,303.75
2018-07-28T10:20:22.299Z,286.88
2018-07-28T10:21:22.298Z,275.63
2018-07-28T10:22:22.297Z,275.63
2018-07-28T10:23:22.297Z,275.63
2018-07-28T10:24:22.297Z,275.63
2018-07-28T10:25:22.300Z,275.63
2018-07-28T10:26:22.300Z,270.00
2018-07-28T10:27:22.304Z,281.25
2018-07-28T10:28:22.373Z,303.75
2018-07-28T10:29:22.320Z,337.50
2018-07-28T10:30:22.348Z,382.50
2018-07-28T10:31:22.303Z,405.00
2018-07-28T10:32:22.301Z,427.50
2018-07-28T10:33:22.298Z,461.25
2018-07-28T10:34:22.304Z,483.75
2018-07-28T10:35:25.249Z,528.75
2018-07-28T10:36:22.368Z,573.75
2018-07-28T10:37:22.296Z,630.00
2018-07-28T10:38:22.297Z,669.38
2018-07-28T10:39:22.298Z,708.75
2018-07-28T10:40:22.297Z,742.50
2018-07-28T10:41:22.295Z,753.75
2018-07-28T10:42:22.309Z,781.88
2018-07-28T10:43:22.293Z,810.00
2018-07-28T10:44:22.293Z,855.00
2018-07-28T10:45:22.296Z,933.75
2018-07-28T10:46:22.358Z,1035.00
2018-07-28T10:47:22.296Z,1158.75
2018-07-28T10:48:22.294Z,1147.50
2018-07-28T10:49:22.290Z,1153.13
2018-07-28T10:50:22.292Z,1130.63
2018-07-28T10:51:22.289Z,1102.50
2018-07-28T10:52:22.291Z,1068.75
2018-07-28T10:53:22.290Z,1040.63
2018-07-28T10:54:22.288Z,1018.13
2018-07-28T10:55:22.285Z,1012.50
2018-07-28T10:56:22.286Z,1029.38
2018-07-28T10:57:22.288Z,1046.25
2018-07-28T10:58:22.288Z,1063.13
2018-07-28T10:59:22.290Z,1080.00
2018-07-28T11:00:22.331Z,1074.38
2018-07-28T11:01:22.290Z,1074.38
2018-07-28T11:02:22.282Z,1068.75
2018-07-28T11:03:23.209Z,1080.00
2018-07-28T11:04:23.202Z,1085.63
2018-07-28T11:05:22.286Z,1085.63
2018-07-28T11:06:22.283Z,1102.50
2018-07-28T11:07:22.281Z,1113.75
2018-07-28T11:08:22.276Z,1164.38
2018-07-28T11:09:22.282Z,1231.88
2018-07-28T11:10:22.279Z,1333.13
2018-07-28T11:11:22.281Z,1395.00
2018-07-28T11:12:22.306Z,1468.13
2018-07-28T11:13:22.283Z,1586.25
2018-07-28T11:14:22.279Z,1726.88
2018-07-28T11:15:22.284Z,1811.25
2018-07-28T11:16:22.278Z,1974.38
2018-07-28T11:17:22.284Z,1985.63
2018-07-28T11:18:22.280Z,2126.25
2018-07-28T11:19:22.283Z,2137.50
2018-07-28T11:20:22.286Z,2064.38
2018-07-28T11:21:22.285Z,2250.00
2018-07-28T11:22:22.279Z,2463.75
2018-07-28T11:23:22.283Z,2767.50
2018-07-28T11:24:22.285Z,2154.38
2018-07-28T11:25:22.300Z,2705.63
2018-07-28T11:26:22.366Z,3206.25
2018-07-28T11:27:22.286Z,2407.50
2018-07-28T11:28:22.290Z,1957.50
2018-07-28T11:29:22.288Z,1839.38
2018-07-28T11:30:22.288Z,1636.88
2018-07-28T11:31:22.312Z,1445.63
2018-07-28T11:32:22.296Z,1327.50
2018-07-28T11:33:22.317Z,1389.38
2018-07-28T11:34:22.299Z,1417.50
2018-07-28T11:35:22.303Z,1383.75
2018-07-28T11:36:22.298Z,1316.25
2018-07-28T11:37:22.303Z,1276.88
2018-07-28T11:38:22.309Z,1462.50
2018-07-28T11:39:22.305Z,1726.88
2018-07-28T11:40:22.309Z,2154.38
2018-07-28T11:41:22.313Z,1563.75
2018-07-28T11:42:22.313Z,1299.38
2018-07-28T11:43:22.311Z,1170.00
2018-07-28T11:44:22.312Z,1164.38
2018-07-28T11:45:22.317Z,1170.00
2018-07-28T11:46:22.322Z,1192.50
2018-07-28T11:47:22.323Z,1276.88
2018-07-28T11:48:22.330Z,1383.75
2018-07-28T11:49:22.327Z,1490.63
2018-07-28T11:50:22.330Z,1653.75
2018-07-28T11:51:22.345Z,2666.25
2018-07-28T11:52:22.346Z,3830.63
2018-07-28T11:53:22.333Z,3420.00
2018-07-28T11:54:22.336Z,5692.50
2018-07-28T11:55:22.345Z,2795.63
2018-07-28T11:56:22.348Z,2964.38
2018-07-28T11:57:22.348Z,2801.25
2018-07-28T11:58:22.432Z,3723.75
2018-07-28T11:59:22.351Z,2475.00
2018-07-28T12:00:22.354Z,4640.63
2018-07-28T12:01:22.357Z,4775.63
2018-07-28T12:02:22.365Z,4938.75
2018-07-28T12:03:22.376Z,3881.25
2018-07-28T12:04:22.368Z,3791.25
2018-07-28T12:05:22.420Z,3611.25
2018-07-28T12:06:22.397Z,4393.13
2018-07-28T12:07:22.379Z,5422.50
2018-07-28T12:08:22.383Z,3920.63
2018-07-28T12:09:22.389Z,3301.88
2018-07-28T12:10:22.391Z,3223.13
2018-07-28T12:11:22.398Z,2823.75
2018-07-28T12:12:22.398Z,2475.00
2018-07-28T12:13:22.408Z,2148.75
2018-07-28T12:14:22.412Z,1991.25
2018-07-28T12:15:22.418Z,1839.38
2018-07-28T12:16:22.418Z,1693.13
2018-07-28T12:17:22.426Z,1552.50
2018-07-28T12:18:22.459Z,1485.00
2018-07-28T12:19:22.433Z,1501.88
2018-07-28T12:20:22.441Z,1608.75
2018-07-28T12:21:22.444Z,1816.88
2018-07-28T12:22:22.450Z,4258.13
2018-07-28T12:23:22.454Z,5146.88
2018-07-28T12:24:22.458Z,5141.25
2018-07-28T12:25:22.458Z,5158.13
2018-07-28T12:26:22.464Z,5028.75
2018-07-28T12:27:22.473Z,4708.13
2018-07-28T12:28:22.477Z,4595.63
2018-07-28T12:29:22.485Z,4263.75
2018-07-28T12:30:22.491Z,3920.63
2018-07-28T12:31:22.496Z,4050.00
2018-07-28T12:32:22.499Z,4123.13
2018-07-28T12:33:22.506Z,3971.25
2018-07-28T12:34:22.513Z,3487.50
2018-07-28T12:35:22.534Z,3256.88